createdAt,value
2022-12-08T00:05:04.710Z,14.60
2022-12-08T00:10:39.648Z,14.33
2022-12-08T00:15:33.254Z,13.83
2022-12-08T00:20:38.113Z,16.17
2022-12-08T00:25:41.473Z,15.97
2022-12-08T00:30:45.445Z,14.80
2022-12-08T00:35:50.458Z,18.00
2022-12-08T00:40:53.928Z,15.10
2022-12-08T00:45:57.469Z,15.60
2022-12-08T00:51:02.495Z,17.10
2022-12-08T00:56:06.017Z,15.27
2022-12-08T01:01:12.775Z,14.73
2022-12-08T01:06:17.983Z,15.97
2022-12-08T01:11:21.628Z,17.17
2022-12-08T01:16:26.875Z,15.70
2022-12-08T01:21:31.799Z,9.80
2022-12-08T01:26:35.306Z,14.50
2022-12-08T01:31:38.819Z,17.47
2022-12-08T01:36:44.698Z,17.03
2022-12-08T01:41:48.860Z,14.13
2022-12-08T01:46:55.011Z,13.45
2022-12-08T01:52:04.370Z,16.10
2022-12-08T01:57:11.691Z,13.13
2022-12-08T02:02:15.482Z,11.47
2022-12-08T02:07:20.368Z,11.60
2022-12-08T02:12:23.884Z,12.57
2022-12-08T02:17:59.765Z,12.40
2022-12-08T02:23:12.741Z,15.03
2022-12-08T02:28:39.466Z,15.40
2022-12-08T02:34:14.278Z,15.37
2022-12-08T02:39:29.995Z,13.45
2022-12-08T02:44:38.249Z,9.80
2022-12-08T02:49:43.558Z,14.37
2022-12-08T02:54:52.038Z,16.67
2022-12-08T03:00:07.768Z,14.30
2022-12-08T03:05:23.276Z,14.07
2022-12-08T03:10:34.294Z,15.27
2022-12-08T03:15:39.976Z,16.60
2022-12-08T03:20:46.518Z,17.00
2022-12-08T03:25:55.376Z,19.10
2022-12-08T03:31:03.725Z,13.53
2022-12-08T03:36:11.011Z,20.47
2022-12-08T03:41:20.616Z,14.60
2022-12-08T03:51:29.022Z,13.37
2022-12-08T03:56:34.939Z,12.80
2022-12-08T04:01:38.750Z,22.97
2022-12-08T04:06:43.619Z,15.33
2022-12-08T04:11:47.149Z,16.03
2022-12-08T04:16:50.448Z,15.03
2022-12-08T04:21:55.185Z,15.07
2022-12-08T04:26:58.515Z,20.17
2022-12-08T04:32:01.947Z,10.70
2022-12-08T04:37:06.780Z,13.80
2022-12-08T04:42:10.109Z,15.73
2022-12-08T04:47:13.556Z,12.67
2022-12-08T04:52:18.483Z,15.27
2022-12-08T04:57:22.095Z,16.67
2022-12-08T05:02:25.658Z,16.37
2022-12-08T05:07:30.640Z,20.33
2022-12-08T05:12:34.630Z,21.03
2022-12-08T05:17:38.111Z,17.33
2022-12-08T05:22:42.933Z,20.20
2022-12-08T05:27:46.302Z,19.77
2022-12-08T05:32:49.678Z,13.37
2022-12-08T05:37:57.287Z,13.07
2022-12-08T05:43:00.767Z,15.60
2022-12-08T05:48:04.188Z,16.92
2022-12-08T05:53:08.958Z,15.57
2022-12-08T05:58:15.050Z,14.40
2022-12-08T06:03:20.883Z,16.07
2022-12-08T06:08:25.986Z,18.27
2022-12-08T06:13:29.455Z,18.93
2022-12-08T06:18:33.135Z,21.40
2022-12-08T06:23:38.354Z,17.92
2022-12-08T06:28:42.507Z,11.63
2022-12-08T06:33:46.563Z,26.48
2022-12-08T06:38:51.610Z,19.88
2022-12-08T06:43:57.492Z,17.00
2022-12-08T06:49:00.811Z,19.20
2022-12-08T06:54:05.867Z,15.43
2022-12-08T06:59:09.483Z,16.90
2022-12-08T07:04:12.965Z,16.07
2022-12-08T07:09:17.751Z,18.73
2022-12-08T07:14:24.931Z,14.00
2022-12-08T07:19:28.633Z,12.10
2022-12-08T07:24:33.808Z,10.67
2022-12-08T07:29:37.241Z,10.63
2022-12-08T07:34:40.725Z,9.30
2022-12-08T07:39:45.490Z,10.73
2022-12-08T07:44:48.935Z,9.90
2022-12-08T07:49:52.355Z,10.87
2022-12-08T07:54:57.383Z,14.27
2022-12-08T08:00:00.739Z,13.53
2022-12-08T08:05:04.496Z,12.40
2022-12-08T08:10:10.964Z,15.48
2022-12-08T08:15:14.559Z,11.37
2022-12-08T08:20:17.976Z,12.07
2022-12-08T08:25:23.844Z,9.67
2022-12-08T08:30:27.258Z,11.90
2022-12-08T08:35:30.864Z,9.17
2022-12-08T08:40:35.867Z,13.13
2022-12-08T08:45:39.317Z,14.87
2022-12-08T08:50:42.795Z,11.77
2022-12-08T08:55:47.878Z,9.57
2022-12-08T09:00:51.431Z,10.53
2022-12-08T09:05:56.423Z,11.43
2022-12-08T09:11:01.412Z,10.13
2022-12-08T09:16:05.915Z,11.57
2022-12-08T09:21:11.715Z,15.02
2022-12-08T09:26:16.623Z,10.47
2022-12-08T09:31:21.232Z,11.00
2022-12-08T09:36:24.727Z,13.40
2022-12-08T09:41:40.308Z,8.70
2022-12-08T09:46:45.725Z,13.27
2022-12-08T09:51:49.547Z,13.02
2022-12-08T09:56:59.944Z,15.70
2022-12-08T10:02:03.922Z,12.57
2022-12-08T10:07:16.619Z,12.88
2022-12-08T10:12:27.578Z,14.47
2022-12-08T10:17:38.102Z,11.90
2022-12-08T10:22:44.923Z,14.47
2022-12-08T10:27:52.719Z,11.03
2022-12-08T10:32:56.524Z,11.67
2022-12-08T10:38:01.760Z,13.33
2022-12-08T10:43:07.160Z,13.73
2022-12-08T10:48:17.922Z,12.13
2022-12-08T10:53:24.637Z,11.90
2022-12-08T10:58:34.141Z,12.60
2022-12-08T11:03:45.903Z,10.97
2022-12-08T11:08:52.718Z,14.73
2022-12-08T11:13:57.963Z,15.30
2022-12-08T11:19:07.462Z,17.23
2022-12-08T11:24:24.243Z,15.70
2022-12-08T11:29:30.286Z,12.83
2022-12-08T11:34:38.533Z,13.70
2022-12-08T11:39:46.040Z,14.60
2022-12-08T11:44:55.979Z,13.67
2022-12-08T11:50:06.032Z,15.43
2022-12-08T11:55:26.011Z,10.50
2022-12-08T12:00:30.980Z,16.10
2022-12-08T12:11:38.287Z,15.93
2022-12-08T12:22:25.209Z,11.53
2022-12-08T12:27:31.397Z,13.03
2022-12-08T12:32:47.138Z,14.33
2022-12-08T12:37:50.986Z,13.87
2022-12-08T12:43:15.888Z,15.60
2022-12-08T12:48:25.980Z,17.80
2022-12-08T12:53:52.321Z,9.60
2022-12-08T12:58:56.020Z,13.63
2022-12-08T13:04:08.674Z,18.37
2022-12-08T13:09:30.443Z,15.63
2022-12-08T13:14:37.445Z,13.30
2022-12-08T13:19:48.806Z,16.57
2022-12-08T13:24:54.841Z,19.88
2022-12-08T13:30:35.421Z,17.77
2022-12-08T13:35:46.043Z,22.57
2022-12-08T13:40:50.484Z,14.13
2022-12-08T13:57:10.552Z,16.30
2022-12-08T14:02:19.503Z,17.25
2022-12-08T14:07:25.282Z,16.80
2022-12-08T14:12:29.836Z,16.67
2022-12-08T14:17:34.131Z,18.33
2022-12-08T14:22:40.804Z,20.98
2022-12-08T14:27:44.590Z,17.77
2022-12-08T14:32:50.850Z,18.00
2022-12-08T14:37:58.838Z,17.07
2022-12-08T14:43:16.814Z,16.77
2022-12-08T14:48:25.491Z,20.87
2022-12-08T14:53:40.841Z,17.10
2022-12-08T14:58:44.481Z,23.90
2022-12-08T15:03:51.259Z,20.77
2022-12-08T15:09:00.039Z,19.67
2022-12-08T15:14:03.453Z,20.50
2022-12-08T15:19:17.767Z,19.13
2022-12-08T15:24:25.170Z,16.88
2022-12-08T15:29:31.159Z,15.87
2022-12-08T15:34:34.502Z,19.90
2022-12-08T15:39:40.079Z,19.23
2022-12-08T15:44:43.493Z,18.40
2022-12-08T15:49:47.755Z,18.97
2022-12-08T15:54:52.713Z,18.23
2022-12-08T15:59:56.307Z,20.67
2022-12-08T16:05:33.839Z,22.83
2022-12-08T16:10:32.212Z,23.77
2022-12-08T16:15:57.084Z,22.33
2022-12-08T16:21:17.004Z,21.65
2022-12-08T16:27:28.554Z,23.10
2022-12-08T16:31:53.153Z,16.05
2022-12-08T16:36:56.807Z,20.10
2022-12-08T16:42:15.598Z,22.37
2022-12-08T16:47:18.931Z,24.00
2022-12-08T16:52:22.464Z,23.13
2022-12-08T16:57:27.643Z,22.07
2022-12-08T17:02:31.206Z,23.57
2022-12-08T17:07:36.011Z,25.93
2022-12-08T17:12:40.952Z,20.13
2022-12-08T17:17:44.737Z,25.50
2022-12-08T17:22:48.667Z,27.90
2022-12-08T17:27:53.595Z,20.40
2022-12-08T17:32:56.931Z,25.90
2022-12-08T17:38:00.381Z,21.10
2022-12-08T17:43:05.777Z,27.00
2022-12-08T17:48:09.528Z,25.80
2022-12-08T17:53:13.327Z,24.33
2022-12-08T17:58:18.189Z,22.37
2022-12-08T18:08:24.844Z,24.93
2022-12-08T18:13:29.637Z,25.53
2022-12-08T18:23:38.101Z,23.93
2022-12-08T18:28:43.547Z,24.27
2022-12-08T18:33:48.066Z,22.30
2022-12-08T18:38:51.650Z,24.63
2022-12-08T18:43:57.594Z,20.23
2022-12-08T18:49:01.134Z,24.60
2022-12-08T18:54:04.575Z,25.00
2022-12-08T18:59:12.389Z,24.77
2022-12-08T19:04:34.693Z,23.37
2022-12-08T19:09:40.170Z,24.87
2022-12-08T19:14:45.056Z,25.07
2022-12-08T19:19:48.678Z,24.07
2022-12-08T19:24:52.208Z,25.70
2022-12-08T19:29:57.647Z,23.00
2022-12-08T19:35:01.260Z,18.73
2022-12-08T19:40:22.902Z,19.30
2022-12-08T19:45:28.071Z,22.13
2022-12-08T19:50:37.542Z,23.17
2022-12-08T19:55:41.477Z,22.00
2022-12-08T20:00:46.858Z,20.23
2022-12-08T20:05:52.895Z,20.05
2022-12-08T20:10:59.148Z,24.73
2022-12-08T20:16:03.945Z,24.93
2022-12-08T20:21:08.174Z,19.67
2022-12-08T20:26:14.151Z,22.63
2022-12-08T20:31:21.116Z,22.07
2022-12-08T20:36:25.043Z,17.77
2022-12-08T20:41:28.365Z,20.23
2022-12-08T20:46:33.226Z,19.47
2022-12-08T20:51:36.717Z,21.73
2022-12-08T20:56:47.919Z,21.63
2022-12-08T21:01:54.009Z,21.97
2022-12-08T21:06:57.625Z,19.93
2022-12-08T21:12:01.095Z,19.77
2022-12-08T21:17:06.134Z,19.67
2022-12-08T21:22:10.147Z,21.13
2022-12-08T21:27:13.755Z,21.50
2022-12-08T21:32:18.784Z,24.23
2022-12-08T21:37:22.522Z,24.80
2022-12-08T21:42:43.464Z,27.57
2022-12-08T21:47:50.004Z,30.77
2022-12-08T21:52:53.537Z,25.77
2022-12-08T21:57:57.324Z,28.43
2022-12-08T22:03:02.742Z,24.65
2022-12-08T22:08:06.874Z,28.00
2022-12-08T22:13:10.540Z,22.75
2022-12-08T22:18:15.385Z,30.83
2022-12-08T22:23:19.102Z,32.80
2022-12-08T22:28:22.685Z,32.13
2022-12-08T22:33:29.451Z,27.45
2022-12-08T22:38:32.988Z,27.20
2022-12-08T22:43:37.409Z,31.47
2022-12-08T22:48:42.264Z,28.42
2022-12-08T22:53:46.284Z,26.05
2022-12-08T22:58:49.933Z,28.23
2022-12-08T23:03:55.182Z,28.13
2022-12-08T23:08:59.423Z,29.60
2022-12-08T23:14:03.037Z,29.77
2022-12-08T23:19:10.033Z,31.70
2022-12-08T23:24:13.497Z,36.17
2022-12-08T23:29:17.537Z,40.80
2022-12-08T23:34:22.262Z,32.13
2022-12-08T23:39:25.674Z,38.22
2022-12-08T23:44:29.157Z,37.87
2022-12-08T23:49:34.066Z,39.57
2022-12-08T23:54:37.452Z,34.00
2022-12-08T23:59:41.010Z,34.70
